createdAt,value
2018-05-11T00:00:17.704Z,9.83
2018-05-11T00:01:17.640Z,9.81
2018-05-11T00:02:17.721Z,9.80
2018-05-11T00:03:17.603Z,9.80
2018-05-11T00:04:17.632Z,9.81
2018-05-11T00:05:17.543Z,9.89
2018-05-11T00:06:17.541Z,9.78
2018-05-11T00:07:17.496Z,9.78
2018-05-11T00:08:17.559Z,9.75
2018-05-11T00:09:17.445Z,9.75
2018-05-11T00:10:17.470Z,9.81
2018-05-11T00:11:17.419Z,9.71
2018-05-11T00:12:17.487Z,9.70
2018-05-11T00:13:17.370Z,9.62
2018-05-11T00:14:18.417Z,9.63
2018-05-11T00:15:17.307Z,9.59
2018-05-11T00:16:18.329Z,9.55
2018-05-11T00:17:17.252Z,9.58
2018-05-11T00:18:17.320Z,9.55
2018-05-11T00:19:17.206Z,9.55
2018-05-11T00:20:17.237Z,9.56
2018-05-11T00:21:17.174Z,9.62
2018-05-11T00:22:17.245Z,9.53
2018-05-11T00:23:17.119Z,9.62
2018-05-11T00:24:17.158Z,9.53
2018-05-11T00:25:17.099Z,9.50
2018-05-11T00:26:17.064Z,9.49
2018-05-11T00:27:17.019Z,9.40
2018-05-11T00:28:18.104Z,9.40
2018-05-11T00:29:16.960Z,9.44
2018-05-11T00:30:17.006Z,9.34
2018-05-11T00:31:16.913Z,9.40
2018-05-11T00:32:17.001Z,9.40
2018-05-11T00:33:16.870Z,9.38
2018-05-11T00:34:16.913Z,9.35
2018-05-11T00:35:16.815Z,9.35
2018-05-11T00:36:16.824Z,9.26
2018-05-11T00:37:16.768Z,9.31
2018-05-11T00:38:16.840Z,9.31
2018-05-11T00:39:16.723Z,9.27
2018-05-11T00:40:16.785Z,9.30
2018-05-11T00:41:16.671Z,9.24
2018-05-11T00:42:16.662Z,9.27
2018-05-11T00:43:16.627Z,9.31
2018-05-11T00:44:16.678Z,9.24
2018-05-11T00:45:16.573Z,9.23
2018-05-11T00:46:16.584Z,9.19
2018-05-11T00:47:16.528Z,9.19
2018-05-11T00:48:16.608Z,9.19
2018-05-11T00:49:16.474Z,9.12
2018-05-11T00:50:16.519Z,9.20
2018-05-11T00:51:16.430Z,9.10
2018-05-11T00:52:16.424Z,8.98
2018-05-11T00:53:16.386Z,9.13
2018-05-11T00:54:17.462Z,9.13
2018-05-11T00:55:16.335Z,9.06
2018-05-11T00:56:16.360Z,9.13
2018-05-11T00:57:16.294Z,9.04
2018-05-11T00:58:16.358Z,9.01
2018-05-11T00:59:16.252Z,9.00
2018-05-11T01:00:16.270Z,8.98
2018-05-11T01:01:16.187Z,8.97
2018-05-11T01:02:16.284Z,8.94
2018-05-11T01:03:16.138Z,8.93
2018-05-11T01:04:16.203Z,8.89
2018-05-11T01:05:16.090Z,8.86
2018-05-11T01:06:16.106Z,8.85
2018-05-11T01:07:16.046Z,8.82
2018-05-11T01:08:16.120Z,8.89
2018-05-11T01:09:15.994Z,8.88
2018-05-11T01:10:16.032Z,8.89
2018-05-11T01:11:15.939Z,8.85
2018-05-11T01:12:15.945Z,8.94
2018-05-11T01:13:15.925Z,8.94
2018-05-11T01:14:15.959Z,8.98
2018-05-11T01:15:15.846Z,8.91
2018-05-11T01:16:15.932Z,8.88
2018-05-11T01:17:15.808Z,8.91
2018-05-11T01:18:15.779Z,8.91
2018-05-11T01:19:15.760Z,8.94
2018-05-11T01:20:15.797Z,8.85
2018-05-11T01:21:15.697Z,8.91
2018-05-11T01:22:15.676Z,8.98
2018-05-11T01:23:15.650Z,8.86
2018-05-11T01:24:15.624Z,8.88
2018-05-11T01:25:15.597Z,8.93
2018-05-11T01:26:15.639Z,9.01
2018-05-11T01:27:15.550Z,8.94
2018-05-11T01:28:15.548Z,8.93
2018-05-11T01:29:15.511Z,8.88
2018-05-11T01:30:15.553Z,8.97
2018-05-11T01:31:15.452Z,8.96
2018-05-11T01:32:15.431Z,8.88
2018-05-11T01:33:15.405Z,8.86
2018-05-11T01:34:15.387Z,8.89
2018-05-11T01:35:15.367Z,8.91
2018-05-11T01:36:15.393Z,8.86
2018-05-11T01:37:15.304Z,8.89
2018-05-11T01:38:15.285Z,8.83
2018-05-11T01:39:15.325Z,8.85
2018-05-11T01:40:15.237Z,8.86
2018-05-11T01:41:15.205Z,8.88
2018-05-11T01:42:15.187Z,8.88
2018-05-11T01:43:15.161Z,8.93
2018-05-11T01:44:15.143Z,8.93
2018-05-11T01:45:15.191Z,8.88
2018-05-11T01:46:15.089Z,8.89
2018-05-11T01:47:15.062Z,8.89
2018-05-11T01:48:15.043Z,8.86
2018-05-11T01:49:15.011Z,8.89
2018-05-11T01:50:14.991Z,8.94
2018-05-11T01:51:14.964Z,8.89
2018-05-11T01:52:14.944Z,8.83
2018-05-11T01:53:14.916Z,8.85
2018-05-11T01:54:14.891Z,8.91
2018-05-11T01:55:14.866Z,8.88
2018-05-11T01:56:14.845Z,8.89
2018-05-11T01:57:14.823Z,8.83
2018-05-11T01:58:14.794Z,8.93
2018-05-11T01:59:14.778Z,8.83
2018-05-11T02:00:14.745Z,8.88
2018-05-11T02:01:14.722Z,8.75
2018-05-11T02:02:14.702Z,8.71
2018-05-11T02:03:14.708Z,8.68
2018-05-11T02:04:14.645Z,8.67
2018-05-11T02:05:14.621Z,8.75
2018-05-11T02:06:14.598Z,8.78
2018-05-11T02:07:14.578Z,8.65
2018-05-11T02:08:14.546Z,8.78
2018-05-11T02:09:14.524Z,8.71
2018-05-11T02:10:14.499Z,8.67
2018-05-11T02:11:14.477Z,8.70
2018-05-11T02:12:14.451Z,8.71
2018-05-11T02:13:14.431Z,8.70
2018-05-11T02:14:14.398Z,8.63
2018-05-11T02:15:14.389Z,8.68
2018-05-11T02:16:14.361Z,8.78
2018-05-11T02:17:14.329Z,8.70
2018-05-11T02:18:14.300Z,8.64
2018-05-11T02:19:14.302Z,8.80
2018-05-11T02:20:14.254Z,8.82
2018-05-11T02:21:14.317Z,8.71
2018-05-11T02:22:14.221Z,8.63
2018-05-11T02:23:14.228Z,8.75
2018-05-11T02:24:14.156Z,8.71
2018-05-11T02:25:14.242Z,8.65
2018-05-11T02:26:14.113Z,8.71
2018-05-11T02:27:14.152Z,8.65
2018-05-11T02:28:14.058Z,8.67
2018-05-11T02:29:14.068Z,8.68
2018-05-11T02:30:14.016Z,8.61
2018-05-11T02:31:14.098Z,8.61
2018-05-11T02:32:13.961Z,8.63
2018-05-11T02:33:13.995Z,8.54
2018-05-11T02:34:13.913Z,8.57
2018-05-11T02:35:14.009Z,8.50
2018-05-11T02:36:13.867Z,8.58
2018-05-11T02:37:13.917Z,8.61
2018-05-11T02:38:13.813Z,8.57
2018-05-11T02:39:13.895Z,8.58
2018-05-11T02:40:13.836Z,8.70
2018-05-11T02:41:13.840Z,8.67
2018-05-11T02:42:13.710Z,8.67
2018-05-11T02:43:14.057Z,8.75
2018-05-11T02:44:13.955Z,8.76
2018-05-11T02:45:13.958Z,8.68
2018-05-11T02:46:13.842Z,8.70
2018-05-11T02:47:13.675Z,8.76
2018-05-11T02:48:13.884Z,8.76
2018-05-11T02:49:13.587Z,8.80
2018-05-11T02:50:13.511Z,8.73
2018-05-11T02:51:13.598Z,8.73
2018-05-11T02:52:13.470Z,8.78
2018-05-11T02:53:13.518Z,8.79
2018-05-11T02:54:13.413Z,8.82
2018-05-11T02:55:13.424Z,8.76
2018-05-11T02:56:13.377Z,8.70
2018-05-11T02:57:13.437Z,8.70
2018-05-11T02:58:13.332Z,8.68
2018-05-11T02:59:14.416Z,8.68
2018-05-11T03:00:13.267Z,8.67
2018-05-11T03:01:13.255Z,8.52
2018-05-11T03:02:13.223Z,8.57
2018-05-11T03:03:13.270Z,8.50
2018-05-11T03:04:13.173Z,8.50
2018-05-11T03:05:13.183Z,8.50
2018-05-11T03:06:13.155Z,8.52
2018-05-11T03:07:13.220Z,8.63
2018-05-11T03:08:13.103Z,8.68
2018-05-11T03:09:13.115Z,8.65
2018-05-11T03:10:13.011Z,8.73
2018-05-11T03:11:13.026Z,8.67
2018-05-11T03:12:12.968Z,8.73
2018-05-11T03:13:13.021Z,8.68
2018-05-11T03:14:12.932Z,8.75
2018-05-11T03:15:12.923Z,8.76
2018-05-11T03:16:12.868Z,8.73
2018-05-11T03:17:13.959Z,8.76
2018-05-11T03:18:12.815Z,8.73
2018-05-11T03:19:12.846Z,8.71
2018-05-11T03:20:12.827Z,8.70
2018-05-11T03:21:12.899Z,8.79
2018-05-11T03:22:12.720Z,8.73
2018-05-11T03:23:13.796Z,8.73
2018-05-11T03:24:12.685Z,8.76
2018-05-11T03:25:13.726Z,8.78
2018-05-11T03:26:12.620Z,8.82
2018-05-11T03:27:12.695Z,8.86
2018-05-11T03:28:12.575Z,8.86
2018-05-11T03:29:12.820Z,8.91
2018-05-11T03:30:12.552Z,8.88
2018-05-11T03:31:12.527Z,8.91
2018-05-11T03:32:12.470Z,8.83
2018-05-11T03:33:12.517Z,8.83
2018-05-11T03:34:12.424Z,8.82
2018-05-11T03:35:12.411Z,8.73
2018-05-11T03:36:12.372Z,8.82
2018-05-11T03:37:12.434Z,8.64
2018-05-11T03:38:12.330Z,8.60
2018-05-11T03:39:12.299Z,8.64
2018-05-11T03:40:12.281Z,8.60
2018-05-11T03:41:12.249Z,8.61
2018-05-11T03:42:12.218Z,8.52
2018-05-11T03:43:12.200Z,8.50
2018-05-11T03:44:12.173Z,8.61
2018-05-11T03:45:12.141Z,8.64
2018-05-11T03:46:12.122Z,8.58
2018-05-11T03:47:12.107Z,8.65
2018-05-11T03:48:12.074Z,8.57
2018-05-11T03:49:12.060Z,8.63
2018-05-11T03:50:12.045Z,8.63
2018-05-11T03:51:12.002Z,8.71
2018-05-11T03:52:11.983Z,8.75
2018-05-11T03:53:11.954Z,8.76
2018-05-11T03:54:11.923Z,8.75
2018-05-11T03:55:11.900Z,8.71
2018-05-11T03:56:11.872Z,8.79
2018-05-11T03:57:11.850Z,8.68
2018-05-11T03:58:11.832Z,8.80
2018-05-11T03:59:11.793Z,8.83
2018-05-11T04:00:11.793Z,8.85
2018-05-11T04:01:11.776Z,8.88
2018-05-11T04:02:11.730Z,8.91
2018-05-11T04:03:11.717Z,8.89
2018-05-11T04:04:11.681Z,8.93
2018-05-11T04:05:11.647Z,8.89
2018-05-11T04:06:11.629Z,8.79
2018-05-11T04:07:11.710Z,8.75
2018-05-11T04:08:11.575Z,8.70
2018-05-11T04:09:11.617Z,8.85
2018-05-11T04:10:11.529Z,8.71
2018-05-11T04:11:11.530Z,8.75
2018-05-11T04:12:11.473Z,8.79
2018-05-11T04:13:11.572Z,8.82
2018-05-11T04:14:11.432Z,8.70
2018-05-11T04:15:11.456Z,8.82
2018-05-11T04:16:11.380Z,8.80
2018-05-11T04:17:11.366Z,8.79
2018-05-11T04:18:11.321Z,8.86
2018-05-11T04:19:11.384Z,8.89
2018-05-11T04:20:11.275Z,8.88
2018-05-11T04:21:11.292Z,8.94
2018-05-11T04:22:11.223Z,8.89
2018-05-11T04:23:11.306Z,8.89
2018-05-11T04:24:11.178Z,8.88
2018-05-11T04:25:11.218Z,8.88
2018-05-11T04:26:11.125Z,8.88
2018-05-11T04:27:11.169Z,8.89
2018-05-11T04:28:11.091Z,8.86
2018-05-11T04:29:11.081Z,8.93
2018-05-11T04:30:11.095Z,8.88
2018-05-11T04:31:12.016Z,8.88
2018-05-11T04:32:10.978Z,8.96
2018-05-11T04:33:11.017Z,9.04
2018-05-11T04:34:10.926Z,9.04
2018-05-11T04:35:10.915Z,9.04
2018-05-11T04:36:10.876Z,9.04
2018-05-11T04:37:10.984Z,9.15
2018-05-11T04:38:10.837Z,9.15
2018-05-11T04:39:10.839Z,9.17
2018-05-11T04:40:10.780Z,9.20
2018-05-11T04:41:10.856Z,9.20
2018-05-11T04:42:10.743Z,9.26
2018-05-11T04:43:11.790Z,9.26
2018-05-11T04:44:10.673Z,9.23
2018-05-11T04:45:10.796Z,9.37
2018-05-11T04:46:10.626Z,9.40
2018-05-11T04:47:10.689Z,9.45
2018-05-11T04:48:10.576Z,9.49
2018-05-11T04:49:10.652Z,9.62
2018-05-11T04:50:10.531Z,9.65
2018-05-11T04:51:10.513Z,9.62
2018-05-11T04:52:10.475Z,9.75
2018-05-11T04:53:10.524Z,9.75
2018-05-11T04:54:10.576Z,9.81
2018-05-11T04:55:10.437Z,9.77
2018-05-11T04:56:10.377Z,9.75
2018-05-11T04:57:10.454Z,9.80
2018-05-11T04:58:10.332Z,9.86
2018-05-11T04:59:10.361Z,9.86
2018-05-11T05:00:10.277Z,9.83
2018-05-11T05:01:10.391Z,9.91
2018-05-11T05:02:10.223Z,9.98
2018-05-11T05:03:10.286Z,9.99
2018-05-11T05:04:10.179Z,9.99
2018-05-11T05:05:10.204Z,10.10
2018-05-11T05:06:10.120Z,10.16
2018-05-11T05:07:10.474Z,10.11
2018-05-11T05:08:10.076Z,10.16
2018-05-11T05:09:10.127Z,10.09
2018-05-11T05:10:10.027Z,10.13
2018-05-11T05:11:10.075Z,10.24
2018-05-11T05:12:09.975Z,10.18
2018-05-11T05:13:10.088Z,10.25
2018-05-11T05:14:09.931Z,10.22
2018-05-11T05:15:09.987Z,10.25
2018-05-11T05:16:09.879Z,10.26
2018-05-11T05:17:09.885Z,10.34
2018-05-11T05:18:09.827Z,10.31
2018-05-11T05:19:09.904Z,10.51
2018-05-11T05:20:09.786Z,10.49
2018-05-11T05:21:09.793Z,10.34
2018-05-11T05:22:09.724Z,10.36
2018-05-11T05:23:09.702Z,10.43
2018-05-11T05:24:09.671Z,10.49
2018-05-11T05:25:10.748Z,10.44
2018-05-11T05:26:09.622Z,10.38
2018-05-11T05:27:09.632Z,10.52
2018-05-11T05:28:09.603Z,10.62
2018-05-11T05:29:09.645Z,10.69
2018-05-11T05:30:09.522Z,10.69
2018-05-11T05:31:09.560Z,10.70
2018-05-11T05:32:09.502Z,10.75
2018-05-11T05:33:09.495Z,10.80
2018-05-11T05:34:09.416Z,10.88
2018-05-11T05:35:09.582Z,10.91
2018-05-11T05:36:09.369Z,10.87
2018-05-11T05:37:09.500Z,10.88
2018-05-11T05:38:09.328Z,10.90
2018-05-11T05:39:09.543Z,10.93
2018-05-11T05:40:09.288Z,10.94
2018-05-11T05:41:09.427Z,10.94
2018-05-11T05:42:09.216Z,10.95
2018-05-11T05:43:09.335Z,10.98
2018-05-11T05:44:09.172Z,11.09
2018-05-11T05:45:09.239Z,11.12
2018-05-11T05:46:09.126Z,11.06
2018-05-11T05:47:09.277Z,11.17
2018-05-11T05:48:09.071Z,11.06
2018-05-11T05:49:09.182Z,11.06
2018-05-11T05:50:09.022Z,11.20
2018-05-11T05:51:09.180Z,11.12
2018-05-11T05:52:09.086Z,11.20
2018-05-11T05:53:09.060Z,11.23
2018-05-11T05:54:08.936Z,11.16
2018-05-11T05:55:08.967Z,11.19
2018-05-11T05:56:09.826Z,11.05
2018-05-11T05:57:08.979Z,11.06
2018-05-11T05:58:08.829Z,11.02
2018-05-11T05:59:08.796Z,11.03
2018-05-11T06:00:08.764Z,11.02
2018-05-11T06:01:08.736Z,11.05
2018-05-11T06:02:08.712Z,11.16
2018-05-11T06:03:08.694Z,11.20
2018-05-11T06:04:08.666Z,11.17
2018-05-11T06:05:08.638Z,11.28
2018-05-11T06:06:08.610Z,11.24
2018-05-11T06:07:08.580Z,11.41
2018-05-11T06:08:08.620Z,11.53
2018-05-11T06:09:08.537Z,11.51
2018-05-11T06:10:08.522Z,11.48
2018-05-11T06:11:08.563Z,11.46
2018-05-11T06:12:08.468Z,11.48
2018-05-11T06:13:08.576Z,11.53
2018-05-11T06:14:08.409Z,11.38
2018-05-11T06:15:08.486Z,11.51
2018-05-11T06:16:08.367Z,11.38
2018-05-11T06:17:08.399Z,11.56
2018-05-11T06:18:08.308Z,11.53
2018-05-11T06:19:08.411Z,11.48
2018-05-11T06:20:08.260Z,11.57
2018-05-11T06:21:08.423Z,11.49
2018-05-11T06:22:08.321Z,11.53
2018-05-11T06:23:08.336Z,11.57
2018-05-11T06:24:08.180Z,11.62
2018-05-11T06:25:08.247Z,11.67
2018-05-11T06:26:08.111Z,11.56
2018-05-11T06:27:08.081Z,11.56
2018-05-11T06:28:08.059Z,11.49
2018-05-11T06:29:08.034Z,11.53
2018-05-11T06:30:08.001Z,11.62
2018-05-11T06:31:07.985Z,11.74
2018-05-11T06:32:07.957Z,11.74
2018-05-11T06:33:07.932Z,11.85
2018-05-11T06:34:07.908Z,12.00
2018-05-11T06:35:07.880Z,11.97
2018-05-11T06:36:07.870Z,12.05
2018-05-11T06:37:07.834Z,11.98
2018-05-11T06:38:07.928Z,12.04
2018-05-11T06:39:07.784Z,12.01
2018-05-11T06:40:07.791Z,12.07
2018-05-11T06:41:07.734Z,12.05
2018-05-11T06:42:07.703Z,12.03
2018-05-11T06:43:07.687Z,12.07
2018-05-11T06:44:07.659Z,12.04
2018-05-11T06:45:07.664Z,12.05
2018-05-11T06:46:07.732Z,12.05
2018-05-11T06:47:07.593Z,12.03
2018-05-11T06:48:07.565Z,12.05
2018-05-11T06:49:07.568Z,12.13
2018-05-11T06:50:07.566Z,12.18
2018-05-11T06:51:07.479Z,12.04
2018-05-11T06:52:07.452Z,12.00
2018-05-11T06:53:07.425Z,12.15
2018-05-11T06:54:07.410Z,12.04
2018-05-11T06:55:07.379Z,12.16
2018-05-11T06:56:07.360Z,12.29
2018-05-11T06:57:07.329Z,12.25
2018-05-11T06:58:07.410Z,12.22
2018-05-11T06:59:07.276Z,12.16
2018-05-11T07:00:07.317Z,12.21
2018-05-11T07:01:07.223Z,12.15
2018-05-11T07:02:07.336Z,12.19
2018-05-11T07:03:07.176Z,12.13
2018-05-11T07:04:07.249Z,12.15
2018-05-11T07:05:07.122Z,12.15
2018-05-11T07:06:07.164Z,12.13
2018-05-11T07:07:07.089Z,12.31
2018-05-11T07:08:07.171Z,12.23
2018-05-11T07:09:07.042Z,12.25
2018-05-11T07:10:07.032Z,12.33
2018-05-11T07:11:06.986Z,12.43
2018-05-11T07:12:06.942Z,12.54
2018-05-11T07:13:06.918Z,12.67
2018-05-11T07:14:06.948Z,12.80
2018-05-11T07:15:06.868Z,12.79
2018-05-11T07:16:06.845Z,12.88
2018-05-11T07:17:06.819Z,12.88
2018-05-11T07:18:06.802Z,12.84
2018-05-11T07:19:06.776Z,12.87
2018-05-11T07:20:06.743Z,12.81
2018-05-11T07:21:06.720Z,12.70
2018-05-11T07:22:06.698Z,12.69
2018-05-11T07:23:06.666Z,12.71
2018-05-11T07:24:06.644Z,12.48
2018-05-11T07:25:06.660Z,12.46
2018-05-11T07:26:06.598Z,12.48
2018-05-11T07:27:06.569Z,12.56
2018-05-11T07:28:06.541Z,12.67
2018-05-11T07:29:06.512Z,12.71
2018-05-11T07:30:06.492Z,12.71
2018-05-11T07:31:06.471Z,12.71
2018-05-11T07:32:06.442Z,12.66
2018-05-11T07:33:06.421Z,12.76
2018-05-11T07:34:06.389Z,12.81
2018-05-11T07:35:06.362Z,12.85
2018-05-11T07:36:06.414Z,12.80
2018-05-11T07:37:06.339Z,12.81
2018-05-11T07:38:06.416Z,12.80
2018-05-11T07:39:06.267Z,12.80
2018-05-11T07:40:06.324Z,12.87
2018-05-11T07:41:06.212Z,12.84
2018-05-11T07:42:06.240Z,12.81
2018-05-11T07:43:06.280Z,12.87
2018-05-11T07:44:06.249Z,13.04
2018-05-11T07:45:06.130Z,13.13
2018-05-11T07:46:06.159Z,13.19
2018-05-11T07:47:06.057Z,13.14
2018-05-11T07:48:06.069Z,13.24
2018-05-11T07:49:06.019Z,13.14
2018-05-11T07:50:06.109Z,13.09
2018-05-11T07:51:05.971Z,13.16
2018-05-11T07:52:05.999Z,13.25
2018-05-11T07:53:05.922Z,13.32
2018-05-11T07:54:06.005Z,13.24
2018-05-11T07:55:05.866Z,13.10
2018-05-11T07:56:05.923Z,13.12
2018-05-11T07:57:05.815Z,13.16
2018-05-11T07:58:05.856Z,13.17
2018-05-11T07:59:05.774Z,13.21
2018-05-11T08:00:06.113Z,13.13
2018-05-11T08:01:05.708Z,13.16
2018-05-11T08:02:05.761Z,13.10
2018-05-11T08:03:05.666Z,13.03
2018-05-11T08:04:05.687Z,13.09
2018-05-11T08:05:05.613Z,13.12
2018-05-11T08:06:06.615Z,13.19
2018-05-11T08:07:05.597Z,13.21
2018-05-11T08:08:05.603Z,13.29
2018-05-11T08:09:05.508Z,13.38
2018-05-11T08:10:05.508Z,13.51
2018-05-11T08:11:05.467Z,13.68
2018-05-11T08:12:05.530Z,13.83
2018-05-11T08:13:05.465Z,13.93
2018-05-11T08:14:05.441Z,13.94
2018-05-11T08:15:05.355Z,13.96
2018-05-11T08:16:05.454Z,13.98
2018-05-11T08:17:05.301Z,14.01
2018-05-11T08:18:05.364Z,14.06
2018-05-11T08:19:05.277Z,13.96
2018-05-11T08:20:05.275Z,14.23
2018-05-11T08:21:05.203Z,14.09
2018-05-11T08:22:05.280Z,14.29
2018-05-11T08:23:05.164Z,14.31
2018-05-11T08:24:05.298Z,14.35
2018-05-11T08:25:05.106Z,14.23
2018-05-11T08:26:05.106Z,14.19
2018-05-11T08:27:05.071Z,14.17
2018-05-11T08:28:05.121Z,14.26
2018-05-11T08:29:05.008Z,14.24
2018-05-11T08:30:05.032Z,14.39
2018-05-11T08:31:04.956Z,14.64
2018-05-11T08:32:04.942Z,14.85
2018-05-11T08:33:04.898Z,15.03
2018-05-11T08:34:04.956Z,15.04
2018-05-11T08:35:04.852Z,15.01
2018-05-11T08:36:04.908Z,15.07
2018-05-11T08:37:04.805Z,15.00
2018-05-11T08:38:04.893Z,14.83
2018-05-11T08:39:04.749Z,14.63
2018-05-11T08:40:04.807Z,14.67
2018-05-11T08:41:04.703Z,14.64
2018-05-11T08:42:04.704Z,14.64
2018-05-11T08:43:04.667Z,14.72
2018-05-11T08:44:04.721Z,14.86
2018-05-11T08:45:04.607Z,14.67
2018-05-11T08:46:04.637Z,14.72
2018-05-11T08:47:04.551Z,14.74
2018-05-11T08:48:04.544Z,14.61
2018-05-11T08:49:04.518Z,14.64
2018-05-11T08:50:04.552Z,14.64
2018-05-11T08:51:04.467Z,14.60
2018-05-11T08:52:05.495Z,14.26
2018-05-11T08:53:04.400Z,14.13
2018-05-11T08:54:04.484Z,14.21
2018-05-11T08:55:04.348Z,14.27
2018-05-11T08:56:04.463Z,14.29
2018-05-11T08:57:04.331Z,14.39
2018-05-11T08:58:04.303Z,14.38
2018-05-11T08:59:04.268Z,14.30
2018-05-11T09:00:04.314Z,14.42
2018-05-11T09:01:04.217Z,14.52
2018-05-11T09:02:04.227Z,14.54
2018-05-11T09:03:04.232Z,14.66
2018-05-11T09:04:04.241Z,14.83
2018-05-11T09:05:04.103Z,14.83
2018-05-11T09:06:05.175Z,14.91
2018-05-11T09:07:04.073Z,15.09
2018-05-11T09:08:04.080Z,15.18
2018-05-11T09:09:04.014Z,15.20
2018-05-11T09:10:04.081Z,15.31
2018-05-11T09:11:03.967Z,15.38
2018-05-11T09:12:03.998Z,15.46
2018-05-11T09:13:03.905Z,15.25
2018-05-11T09:14:04.924Z,15.11
2018-05-11T09:15:03.921Z,15.16
2018-05-11T09:16:03.960Z,15.18
2018-05-11T09:17:03.803Z,15.30
2018-05-11T09:18:03.827Z,15.33
2018-05-11T09:19:03.753Z,15.20
2018-05-11T09:20:03.834Z,15.23
2018-05-11T09:21:03.705Z,15.07
2018-05-11T09:22:03.795Z,15.05
2018-05-11T09:23:03.669Z,15.04
2018-05-11T09:24:03.661Z,15.00
2018-05-11T09:25:03.608Z,14.90
2018-05-11T09:26:03.675Z,14.97
2018-05-11T09:27:03.577Z,14.97
2018-05-11T09:28:03.585Z,14.95
2018-05-11T09:29:03.589Z,14.91
2018-05-11T09:30:03.642Z,14.91
2018-05-11T09:31:03.474Z,14.91
2018-05-11T09:32:03.520Z,14.98
2018-05-11T09:33:03.408Z,15.07
2018-05-11T09:34:04.451Z,15.13
2018-05-11T09:35:03.364Z,15.34
2018-05-11T09:36:03.431Z,15.49
2018-05-11T09:37:03.314Z,15.56
2018-05-11T09:38:03.342Z,15.70
2018-05-11T09:39:03.266Z,15.62
2018-05-11T09:40:03.256Z,15.68
2018-05-11T09:41:03.214Z,15.68
2018-05-11T09:42:03.269Z,15.80
2018-05-11T09:43:03.162Z,15.80
2018-05-11T09:44:03.179Z,15.62
2018-05-11T09:45:03.116Z,15.52
2018-05-11T09:46:03.195Z,15.60
2018-05-11T09:47:03.063Z,15.51
2018-05-11T09:48:03.105Z,15.58
2018-05-11T09:49:03.017Z,15.56
2018-05-11T09:50:03.016Z,15.56
2018-05-11T09:51:02.971Z,15.44
2018-05-11T09:52:03.038Z,15.56
2018-05-11T09:53:02.915Z,15.59
2018-05-11T09:54:02.949Z,15.58
2018-05-11T09:55:02.871Z,15.62
2018-05-11T09:56:02.860Z,15.70
2018-05-11T09:57:02.823Z,15.68
2018-05-11T09:58:02.892Z,15.60
2018-05-11T09:59:02.775Z,15.53
2018-05-11T10:00:02.792Z,15.49
2018-05-11T10:01:02.718Z,15.59
2018-05-11T10:02:02.794Z,15.71
2018-05-11T10:03:02.679Z,15.99
2018-05-11T10:04:02.707Z,15.95
2018-05-11T10:05:02.633Z,15.73
2018-05-11T10:06:03.641Z,15.77
2018-05-11T10:07:02.579Z,15.62
2018-05-11T10:08:02.631Z,15.74
2018-05-11T10:09:02.522Z,15.92
2018-05-11T10:10:03.568Z,15.96
2018-05-11T10:11:02.475Z,16.08
2018-05-11T10:12:02.558Z,16.08
2018-05-11T10:13:02.430Z,16.06
2018-05-11T10:14:03.493Z,15.64
2018-05-11T10:15:02.400Z,15.31
2018-05-11T10:16:03.404Z,15.25
2018-05-11T10:17:02.324Z,15.23
2018-05-11T10:18:07.008Z,15.34
2018-05-11T10:19:02.282Z,15.40
2018-05-11T10:20:02.307Z,15.62
2018-05-11T10:21:02.228Z,15.74
2018-05-11T10:22:02.316Z,15.92
2018-05-11T10:23:02.186Z,16.03
2018-05-11T10:24:02.234Z,16.17
2018-05-11T10:25:02.125Z,16.50
2018-05-11T10:26:02.138Z,16.69
2018-05-11T10:27:02.146Z,16.80
2018-05-11T10:28:02.061Z,17.15
2018-05-11T10:29:02.203Z,17.28
2018-05-11T10:30:02.014Z,17.42
2018-05-11T10:31:02.072Z,17.45
2018-05-11T10:32:01.983Z,17.21
2018-05-11T10:33:01.987Z,17.10
2018-05-11T10:34:01.907Z,17.27
2018-05-11T10:35:01.902Z,17.54
2018-05-11T10:36:01.866Z,17.54
2018-05-11T10:37:01.916Z,17.62
2018-05-11T10:38:01.817Z,17.49
2018-05-11T10:39:01.817Z,17.51
2018-05-11T10:40:01.827Z,17.66
2018-05-11T10:41:01.753Z,17.70
2018-05-11T10:42:01.725Z,17.68
2018-05-11T10:43:01.692Z,17.91
2018-05-11T10:44:01.674Z,17.87
2018-05-11T10:45:01.646Z,17.98
2018-05-11T10:46:01.629Z,18.11
2018-05-11T10:47:01.667Z,18.10
2018-05-11T10:48:01.580Z,18.16
2018-05-11T10:49:01.583Z,18.25
2018-05-11T10:50:01.529Z,18.11
2018-05-11T10:51:01.506Z,18.11
2018-05-11T10:52:01.481Z,18.02
2018-05-11T10:53:01.511Z,17.70
2018-05-11T10:54:01.433Z,17.40
2018-05-11T10:55:01.544Z,17.35
2018-05-11T10:56:01.398Z,17.18
2018-05-11T10:57:01.443Z,17.00
2018-05-11T10:58:01.344Z,17.00
2018-05-11T10:59:01.340Z,16.73
2018-05-11T11:00:01.294Z,16.81
2018-05-11T11:01:01.355Z,16.62
2018-05-11T11:02:01.237Z,16.73
2018-05-11T11:03:01.211Z,16.67
2018-05-11T11:04:01.191Z,16.90
2018-05-11T11:05:01.263Z,17.18
2018-05-11T11:06:01.203Z,17.51
2018-05-11T11:07:01.118Z,17.51
2018-05-11T11:08:01.258Z,17.28
2018-05-11T11:09:01.084Z,17.30
2018-05-11T11:10:01.118Z,17.27
2018-05-11T11:11:01.032Z,17.24
2018-05-11T11:12:00.997Z,17.10
2018-05-11T11:13:00.978Z,17.28
2018-05-11T11:14:01.046Z,17.54
2018-05-11T11:15:00.939Z,17.58
2018-05-11T11:16:00.950Z,17.65
2018-05-11T11:17:00.895Z,17.79
2018-05-11T11:18:00.854Z,17.94
2018-05-11T11:19:00.839Z,18.13
2018-05-11T11:20:00.903Z,18.35
2018-05-11T11:21:00.782Z,18.41
2018-05-11T11:22:00.763Z,18.35
2018-05-11T11:23:00.735Z,18.44
2018-05-11T11:24:00.735Z,18.36
2018-05-11T11:25:00.706Z,18.19
2018-05-11T11:26:00.684Z,17.83
2018-05-11T11:27:00.637Z,17.73
2018-05-11T11:28:00.624Z,17.65
2018-05-11T11:29:00.593Z,17.62
2018-05-11T11:30:01.661Z,17.49
2018-05-11T11:31:00.544Z,17.42
2018-05-11T11:32:00.523Z,17.39
2018-05-11T11:33:00.562Z,17.22
2018-05-11T11:34:00.483Z,17.25
2018-05-11T11:35:00.464Z,17.39
2018-05-11T11:36:00.431Z,17.42
2018-05-11T11:37:02.434Z,17.53
2018-05-11T11:38:00.377Z,17.58
2018-05-11T11:39:00.389Z,17.74
2018-05-11T11:40:00.336Z,17.92
2018-05-11T11:41:00.401Z,17.96
2018-05-11T11:42:00.342Z,18.13
2018-05-11T11:43:00.311Z,18.38
2018-05-11T11:44:00.240Z,18.57
2018-05-11T11:45:00.244Z,18.82
2018-05-11T11:46:00.209Z,18.96
2018-05-11T11:47:00.173Z,18.89
2018-05-11T11:48:00.143Z,18.89
2018-05-11T11:49:01.178Z,18.91
2018-05-11T11:50:00.129Z,18.79
2018-05-11T11:51:00.161Z,18.51
2018-05-11T11:52:02.007Z,18.35
2018-05-11T11:53:01.204Z,18.17
2018-05-11T11:54:00.054Z,17.96
2018-05-11T11:55:04.770Z,17.94
2018-05-11T11:55:59.993Z,17.89
2018-05-11T11:57:01.141Z,17.91
2018-05-11T11:57:59.912Z,17.81
2018-05-11T11:59:00.005Z,17.80
2018-05-11T11:59:59.853Z,17.92
2018-05-11T12:00:59.858Z,18.29
2018-05-11T12:01:59.834Z,18.36
2018-05-11T12:02:59.834Z,18.39
2018-05-11T12:03:59.775Z,18.26
2018-05-11T12:04:59.838Z,18.29
2018-05-11T12:05:59.729Z,18.28
2018-05-11T12:06:59.749Z,18.09
2018-05-11T12:07:59.698Z,18.02
2018-05-11T12:08:59.676Z,17.91
2018-05-11T12:09:59.625Z,17.80
2018-05-11T12:10:59.623Z,17.95
2018-05-11T12:11:59.681Z,18.05
2018-05-11T12:12:59.554Z,18.11
2018-05-11T12:14:01.649Z,18.14
2018-05-11T12:14:59.524Z,18.16
2018-05-11T12:15:59.607Z,18.20
2018-05-11T12:16:59.497Z,18.21
2018-05-11T12:17:59.521Z,18.36
2018-05-11T12:18:59.416Z,18.34
2018-05-11T12:19:59.428Z,18.39
2018-05-11T12:20:59.371Z,18.25
2018-05-11T12:21:59.459Z,18.35
2018-05-11T12:22:59.344Z,18.29
2018-05-11T12:23:59.377Z,18.31
2018-05-11T12:24:59.311Z,18.32
2018-05-11T12:25:59.391Z,18.46
2018-05-11T12:26:59.232Z,18.41
2018-05-11T12:28:01.348Z,18.34
2018-05-11T12:28:59.225Z,18.39
2018-05-11T12:29:59.259Z,18.35
2018-05-11T12:30:59.168Z,18.20
2018-05-11T12:31:59.169Z,18.11
2018-05-11T12:32:59.111Z,18.19
2018-05-11T12:33:59.174Z,18.26
2018-05-11T12:34:59.132Z,18.32
2018-05-11T12:35:59.123Z,18.46
2018-05-11T12:36:59.012Z,18.59
2018-05-11T12:37:59.000Z,18.56
2018-05-11T12:38:58.966Z,18.66
2018-05-11T12:39:59.010Z,18.86
2018-05-11T12:40:58.943Z,18.99
2018-05-11T12:41:58.927Z,19.13
2018-05-11T12:42:58.900Z,19.07
2018-05-11T12:43:58.942Z,18.86
2018-05-11T12:44:58.837Z,18.69
2018-05-11T12:45:58.798Z,18.51
2018-05-11T12:46:58.778Z,18.36
2018-05-11T12:47:58.762Z,18.25
2018-05-11T12:48:58.753Z,18.16
2018-05-11T12:49:58.726Z,18.28
2018-05-11T12:50:58.705Z,18.32
2018-05-11T12:51:58.650Z,18.32
2018-05-11T12:52:58.792Z,18.35
2018-05-11T12:53:58.647Z,18.44
2018-05-11T12:54:58.718Z,18.59
2018-05-11T12:55:58.587Z,18.86
2018-05-11T12:56:58.538Z,18.91
2018-05-11T12:57:58.613Z,19.09
2018-05-11T12:58:58.518Z,19.23
2018-05-11T12:59:58.489Z,19.42
2018-05-11T13:00:58.488Z,19.60
2018-05-11T13:01:58.452Z,19.68